Time;durP1;ratioP1;P1;durP2;ratioP2;P2;SDS_P1;SDS_P2;PMS_P1;PMS_P2;Temp;Humidity;BMP_temperature;BMP_pressure;BME280_temperature;BME280_humidity;BME280_pressure;Samples;Min_cycle;Max_cycle;Signal;HPM_P1;HPM_P2
2022/03/29 00:01:58;;;;;;;11.27;6.05;;;;;;;5.99;68.97;99321.31;5076160;28;20215;-70
2022/03/29 00:04:28;;;;;;;14.52;7.05;;;;;;;6.03;69.08;99312.06;5076897;28;20434;-70
2022/03/29 00:06:57;;;;;;;;;;;;;;;6.00;68.92;99317.09;5076804;28;20051;-70
2022/03/29 00:09:25;;;;;;;17.20;6.20;;;;;;;5.89;68.98;99318.66;5076484;28;19920;-70
2022/03/29 00:11:55;;;;;;;10.93;5.07;;;;;;;5.76;69.12;99309.19;5076266;28;20045;-70
2022/03/29 00:14:24;;;;;;;15.50;7.60;;;;;;;5.69;69.76;99303.19;5076449;28;20040;-70
2022/03/29 00:16:54;;;;;;;15.85;7.88;;;;;;;5.80;68.94;99293.19;5076141;28;20070;-70
2022/03/29 00:19:23;;;;;;;15.48;6.97;;;;;;;5.61;69.23;99283.69;5095177;28;20493;-70
2022/03/29 00:21:52;;;;;;;11.27;5.90;;;;;;;5.57;69.56;99289.50;5096221;28;20048;-70
2022/03/29 00:24:21;;;;;;;18.83;7.47;;;;;;;5.26;69.68;99276.47;5096052;28;20040;-70
2022/03/29 00:26:50;;;;;;;16.73;7.97;;;;;;;5.38;69.76;99284.22;5096464;28;20371;-70
2022/03/29 00:29:19;;;;;;;14.38;7.60;;;;;;;5.58;69.51;99281.09;5095532;28;20094;-70
2022/03/29 00:31:48;;;;;;;15.15;7.40;;;;;;;5.43;70.10;99282.59;5096060;28;20062;-70
2022/03/29 00:34:19;;;;;;;23.73;7.63;;;;;;;5.64;69.86;99276.13;5095021;28;20131;-70
2022/03/29 00:36:48;;;;;;;16.10;7.47;;;;;;;5.50;69.80;99267.50;5096583;28;20490;-70
2022/03/29 00:39:17;;;;;;;11.82;5.55;;;;;;;5.64;69.81;99271.06;5095890;28;20044;-70
2022/03/29 00:41:46;;;;;;;14.73;7.60;;;;;;;5.53;69.86;99267.53;5095872;28;20082;-70
2022/03/29 00:44:16;;;;;;;15.82;7.82;;;;;;;5.37;69.90;99256.38;5095694;28;20040;-70
2022/03/29 00:46:47;;;;;;;16.35;7.68;;;;;;;5.59;69.81;99262.56;5095713;28;20426;-70
2022/03/29 00:49:16;;;;;;;14.07;6.93;;;;;;;5.38;69.73;99258.94;5096095;28;20149;-70
2022/03/29 00:51:47;;;;;;;17.87;7.70;;;;;;;5.38;70.59;99253.88;5095702;28;20044;-70
2022/03/29 00:54:16;;;;;;;16.10;7.78;;;;;;;5.53;70.14;99257.41;5095984;28;20482;-70
2022/03/29 00:56:44;;;;;;;18.00;7.00;;;;;;;5.34;69.93;99262.25;5096018;28;20032;-71
2022/03/29 00:59:14;;;;;;;16.20;8.03;;;;;;;5.25;69.89;99259.59;5095518;28;20047;-71
2022/03/29 01:01:42;;;;;;;14.65;7.18;;;;;;;5.27;70.24;99255.41;5095514;28;20046;-71
2022/03/29 01:04:12;;;;;;;14.00;6.67;;;;;;;5.32;70.62;99256.34;5095336;28;20043;-71
2022/03/29 01:06:41;;;;;;;14.00;5.85;;;;;;;5.50;70.23;99249.78;5095367;28;20052;-71
2022/03/29 01:09:12;;;;;;;9.55;5.70;;;;;;;5.19;70.02;99254.44;5095761;28;20044;-71
2022/03/29 01:11:42;;;;;;;10.45;5.35;;;;;;;5.25;70.46;99251.16;5095302;28;20048;-71
2022/03/29 01:14:11;;;;;;;9.05;4.10;;;;;;;5.22;70.28;99251.97;5094400;28;20100;-71
2022/03/29 01:19:20;;;;;;;10.05;5.38;;;;;;;5.10;70.59;99236.63;5094999;28;20052;-71
2022/03/29 01:21:57;;;;;;;10.00;5.28;;;;;;;5.18;70.45;99229.97;5094657;28;20055;-71
2022/03/29 01:24:27;;;;;;;11.10;5.47;;;;;;;5.01;70.70;99241.56;5095102;28;20123;-71
2022/03/29 01:26:59;;;;;;;12.43;5.25;;;;;;;4.92;71.15;99233.81;5095137;28;20055;-71
2022/03/29 01:29:29;;;;;;;10.18;5.18;;;;;;;4.86;71.68;99241.34;5094871;28;20044;-71
2022/03/29 01:31:59;;;;;;;10.55;4.90;;;;;;;4.93;71.80;99227.09;5094903;28;20143;-71
2022/03/29 01:34:30;;;;;;;10.68;5.13;;;;;;;4.92;71.73;99226.25;5094886;28;20043;-71
2022/03/29 01:37:00;;;;;;;9.70;4.95;;;;;;;4.87;72.06;99227.84;5095176;28;20074;-71
2022/03/29 01:39:29;;;;;;;9.43;5.10;;;;;;;4.88;72.47;99228.72;5094821;28;20052;-70
2022/03/29 01:41:58;;;;;;;10.68;5.30;;;;;;;4.75;72.27;99222.66;5094687;28;20050;-71
2022/03/29 01:44:27;;;;;;;12.35;5.70;;;;;;;5.02;73.15;99228.06;5093988;28;20086;-70
2022/03/29 01:46:57;;;;;;;11.20;5.53;;;;;;;4.86;72.14;99221.13;5094922;28;20037;-70
2022/03/29 01:49:26;;;;;;;10.77;5.47;;;;;;;4.73;72.61;99209.97;5094617;28;20048;-71
2022/03/29 01:51:56;;;;;;;10.47;5.33;;;;;;;4.63;72.49;99207.28;5094424;28;20277;-71
2022/03/29 01:54:26;;;;;;;12.45;5.40;;;;;;;4.66;72.78;99212.38;5094532;28;20118;-71
2022/03/29 01:56:55;;;;;;;13.55;6.30;;;;;;;4.42;72.70;99206.94;5094495;28;20070;-70
2022/03/29 01:59:24;;;;;;;14.47;5.60;;;;;;;4.54;73.28;99212.19;5094979;28;20065;-71
2022/03/29 02:01:54;;;;;;;11.60;5.97;;;;;;;4.54;72.54;99202.09;5093286;28;20126;-70
2022/03/29 02:04:23;;;;;;;12.25;7.18;;;;;;;4.50;72.58;99202.88;5094238;28;20038;-71
2022/03/29 02:06:52;;;;;;;14.32;6.68;;;;;;;4.54;72.84;99202.09;5094193;28;20047;-71
2022/03/29 02:09:21;;;;;;;15.00;6.95;;;;;;;4.59;72.21;99201.34;5094261;28;20039;-71
2022/03/29 02:11:51;;;;;;;13.85;5.93;;;;;;;4.57;72.46;99197.09;5094474;28;20134;-71
2022/03/29 02:14:20;;;;;;;13.88;6.90;;;;;;;4.45;72.54;99194.38;5093204;28;20079;-71
2022/03/29 02:16:49;;;;;;;12.07;5.88;;;;;;;4.34;71.78;99193.38;5094111;28;20040;-70
2022/03/29 02:19:18;;;;;;;11.90;6.07;;;;;;;4.38;72.55;99190.03;5093905;28;20048;-71
2022/03/29 02:21:47;;;;;;;12.47;6.20;;;;;;;4.39;72.11;99189.25;5093927;28;20401;-71
2022/03/29 02:24:16;;;;;;;12.43;6.57;;;;;;;4.30;72.16;99186.53;5094074;28;20036;-71
2022/03/29 02:26:44;;;;;;;11.80;6.40;;;;;;;4.34;72.23;99193.38;5093955;28;20040;-71
2022/03/29 02:29:15;;;;;;;10.68;4.55;;;;;;;4.30;72.80;99186.53;5094277;28;20063;-71
2022/03/29 02:31:44;;;;;;;12.75;5.70;;;;;;;4.34;73.24;99190.84;5093793;28;20452;-71
2022/03/29 02:34:13;;;;;;;8.55;4.70;;;;;;;4.29;72.72;99184.84;5093009;28;20047;-71
2022/03/29 02:36:41;;;;;;;11.88;5.93;;;;;;;4.21;73.30;99188.91;5093010;28;20040;-71
2022/03/29 02:39:10;;;;;;;12.35;5.80;;;;;;;4.15;73.20;99181.25;5094106;28;20039;-71
2022/03/29 02:41:39;;;;;;;16.00;6.13;;;;;;;4.04;73.75;99179.41;5093678;28;20165;-71
2022/03/29 02:44:08;;;;;;;17.35;7.05;;;;;;;4.01;72.71;99179.34;5093562;28;20508;-71
2022/03/29 02:46:38;;;;;;;9.53;4.93;;;;;;;4.21;73.03;99178.81;5093726;28;20090;-71
2022/03/29 02:49:08;;;;;;;11.60;5.78;;;;;;;4.04;73.07;99176.88;5093688;28;20284;-71
2022/03/29 02:51:36;;;;;;;11.93;5.93;;;;;;;3.98;72.81;99183.50;5093952;28;20066;-71
2022/03/29 02:54:05;;;;;;;15.90;6.40;;;;;;;4.07;73.10;99183.66;5093580;28;20068;-71
2022/03/29 02:56:35;;;;;;;14.43;6.63;;;;;;;4.11;72.93;99182.00;5093519;28;20277;-71
2022/03/29 02:59:04;;;;;;;12.60;5.47;;;;;;;3.92;72.80;99183.38;5093559;28;20119;-71
2022/03/29 03:01:33;;;;;;;12.57;6.00;;;;;;;3.92;73.05;99184.25;5093521;28;20043;-70
2022/03/29 03:04:05;;;;;;;12.40;6.05;;;;;;;4.05;73.63;99187.84;5093673;28;20398;-71
2022/03/29 03:06:34;;;;;;;11.98;6.03;;;;;;;3.98;73.51;99184.34;5093512;28;20075;-71
2022/03/29 03:09:03;;;;;;;12.67;6.10;;;;;;;4.05;73.69;99176.03;5093740;28;20397;-71
2022/03/29 03:11:32;;;;;;;15.17;5.07;;;;;;;4.20;73.32;99174.63;5093449;28;20127;-71
2022/03/29 03:14:01;;;;;;;15.50;7.05;;;;;;;4.34;72.71;99179.06;5093687;28;20421;-71
2022/03/29 03:16:30;;;;;;;28.10;11.33;;;;;;;4.44;71.88;99180.06;5093401;28;20043;-71
2022/03/29 03:18:59;;;;;;;21.42;8.15;;;;;;;4.39;71.43;99171.56;5093166;28;20056;-71
2022/03/29 03:21:29;;;;;;;17.80;7.35;;;;;;;4.25;71.77;99168.78;5093379;28;20032;-71
2022/03/29 03:23:58;;;;;;;16.35;7.50;;;;;;;4.16;71.97;99168.66;5092497;28;20047;-71
2022/03/29 03:26:27;;;;;;;13.35;5.10;;;;;;;4.08;71.55;99166.00;5093724;28;20033;-70
2022/03/29 03:28:55;;;;;;;14.95;6.15;;;;;;;3.86;71.58;99163.91;5093588;28;20456;-70
2022/03/29 03:31:24;;;;;;;17.77;6.87;;;;;;;3.65;71.74;99153.47;5093288;28;20062;-70
2022/03/29 03:33:54;;;;;;;19.98;8.95;;;;;;;3.63;72.39;99160.16;5093324;28;20498;-70
2022/03/29 03:36:22;;;;;;;26.15;9.10;;;;;;;3.65;72.07;99162.69;5093220;28;20056;-70
2022/03/29 03:38:53;;;;;;;23.33;9.20;;;;;;;3.52;73.32;99165.84;5093227;28;20044;-70
2022/03/29 03:41:22;;;;;;;52.30;18.45;;;;;;;3.59;72.54;99163.44;5093743;28;20094;-70
2022/03/29 03:43:51;;;;;;;45.03;17.17;;;;;;;3.67;73.16;99161.91;5093277;28;20105;-70
2022/03/29 03:46:20;;;;;;;28.90;13.40;;;;;;;3.66;72.67;99155.16;5096641;28;20040;-70
2022/03/29 03:48:48;;;;;;;36.50;14.93;;;;;;;3.70;73.44;99158.59;5097223;28;20067;-70
2022/03/29 03:51:18;;;;;;;49.40;21.90;;;;;;;3.60;72.59;99155.03;5096810;28;20032;-70
2022/03/29 03:53:49;;;;;;;43.80;17.10;;;;;;;3.73;73.27;99162.03;5096650;28;20055;-70
2022/03/29 03:56:19;;;;;;;34.22;15.15;;;;;;;3.60;72.60;99154.22;5096856;28;20131;-70
2022/03/29 03:58:49;;;;;;;30.48;13.07;;;;;;;3.43;72.99;99151.38;5096763;28;20059;-70
2022/03/29 04:01:17;;;;;;;19.67;8.93;;;;;;;3.39;72.98;99154.66;5096640;28;20047;-70
2022/03/29 04:03:47;;;;;;;18.02;7.22;;;;;;;3.35;73.91;99148.72;5096651;28;20050;-70
2022/03/29 04:06:16;;;;;;;14.53;7.13;;;;;;;3.22;73.08;99150.94;5095443;28;20044;-70
2022/03/29 04:08:45;;;;;;;16.00;7.17;;;;;;;3.20;73.77;99143.38;5096866;28;20564;-70
2022/03/29 04:11:14;;;;;;;13.18;6.45;;;;;;;3.10;73.78;99146.53;5096784;28;20444;-70
2022/03/29 04:13:44;;;;;;;16.37;6.60;;;;;;;3.11;74.24;99147.38;5095513;28;20047;-70
2022/03/29 04:16:13;;;;;;;14.10;7.22;;;;;;;3.09;73.63;99149.03;5096615;28;20040;-70
2022/03/29 04:18:42;;;;;;;17.63;8.27;;;;;;;3.00;74.27;99148.84;5096124;28;20076;-70
2022/03/29 04:21:11;;;;;;;9.93;4.97;;;;;;;3.06;74.14;99156.50;5096317;28;20044;-70
2022/03/29 04:23:40;;;;;;;15.55;7.22;;;;;;;2.99;73.78;99157.22;5096562;28;20396;-70
2022/03/29 04:26:09;;;;;;;13.30;6.90;;;;;;;3.10;74.31;99150.69;5096025;28;20148;-70
2022/03/29 04:28:38;;;;;;;14.45;6.30;;;;;;;2.93;74.23;99157.09;5096479;28;20375;-70
2022/03/29 04:31:09;;;;;;;11.80;5.80;;;;;;;2.90;74.08;99157.03;5096104;28;20520;-70
2022/03/29 04:33:38;;;;;;;11.85;5.78;;;;;;;3.06;75.04;99156.50;5095204;28;20056;-70
2022/03/29 04:36:07;;;;;;;;;;;;;;;3.06;74.77;99161.56;5096684;28;20092;-70
2022/03/29 04:38:36;;;;;;;10.55;5.80;;;;;;;3.15;74.69;99161.72;5095934;28;19958;-70
2022/03/29 04:41:05;;;;;;;12.57;5.83;;;;;;;3.19;74.85;99166.03;5096182;28;20390;-70
2022/03/29 04:43:35;;;;;;;16.10;5.75;;;;;;;3.25;75.18;99166.16;5095862;28;20452;-70
2022/03/29 04:46:04;;;;;;;14.68;6.72;;;;;;;3.31;74.93;99161.25;5095681;28;20044;-70
2022/03/29 04:48:35;;;;;;;15.07;6.03;;;;;;;3.59;75.76;99153.34;5096062;28;20379;-70
2022/03/29 04:51:04;;;;;;;10.30;5.70;;;;;;;3.85;74.66;99157.19;5095701;28;20040;-70
2022/03/29 04:53:33;;;;;;;13.07;5.95;;;;;;;3.81;74.39;99160.50;5095937;28;20123;-70
2022/03/29 04:56:02;;;;;;;13.10;5.93;;;;;;;3.75;75.04;99154.47;5095008;28;20048;-70
2022/03/29 04:58:31;;;;;;;12.82;6.07;;;;;;;3.94;74.23;99147.25;5095613;28;20063;-70
2022/03/29 05:01:00;;;;;;;8.55;4.50;;;;;;;3.99;74.90;99150.69;5111607;28;20060;-70
2022/03/29 05:03:30;;;;;;;13.77;6.38;;;;;;;4.28;74.07;99152.84;5095479;28;20052;-70
2022/03/29 05:06:00;;;;;;;16.33;7.33;;;;;;;4.33;74.10;99146.19;5095269;28;20043;-70
2022/03/29 05:08:29;;;;;;;13.13;6.10;;;;;;;4.45;74.09;99146.38;5095646;28;20082;-70
2022/03/29 05:10:58;;;;;;;10.77;4.60;;;;;;;4.61;73.62;99143.22;5095331;28;20048;-70
2022/03/29 05:13:27;;;;;;;16.13;7.25;;;;;;;4.67;72.87;99131.56;5095250;28;20042;-70
2022/03/29 05:15:56;;;;;;;17.02;7.78;;;;;;;4.83;72.36;99134.25;5095443;28;20044;-70
2022/03/29 05:18:25;;;;;;;16.13;8.32;;;;;;;4.88;72.23;99128.44;5094789;28;20048;-70
2022/03/29 05:20:54;;;;;;;19.73;9.63;;;;;;;5.06;71.55;99122.78;5095106;28;20048;-70
2022/03/29 05:23:25;;;;;;;19.98;10.40;;;;;;;4.98;70.66;99130.25;5095385;28;20485;-70
2022/03/29 05:25:54;;;;;;;20.70;9.25;;;;;;;5.13;70.76;99130.47;5095305;28;20067;-70
2022/03/29 05:28:23;;;;;;;24.43;9.33;;;;;;;5.22;69.74;99122.97;5095017;28;20043;-70
2022/03/29 05:30:51;;;;;;;12.90;7.35;;;;;;;5.30;69.86;99123.06;5095259;28;20501;-70
2022/03/29 05:33:20;;;;;;;18.77;7.70;;;;;;;5.51;69.82;99122.44;5094905;28;20040;-70
2022/03/29 05:35:49;;;;;;;21.27;9.13;;;;;;;5.74;69.86;99116.75;5095190;28;20639;-70
2022/03/29 05:38:19;;;;;;;20.75;9.63;;;;;;;5.84;69.39;99110.09;5094652;28;20059;-70
2022/03/29 05:40:49;;;;;;;13.15;7.72;;;;;;;6.10;69.20;99126.38;5094673;28;20050;-70
2022/03/29 05:43:18;;;;;;;20.20;10.10;;;;;;;6.33;67.97;99119.81;5094750;28;20056;-70
2022/03/29 05:48:51;;;;;;;29.93;11.13;;;;;;;6.46;67.55;99121.59;5094575;28;20055;-70
2022/03/29 05:51:16;;;;;;;21.70;10.10;;;;;;;7.05;66.61;99124.47;5094533;28;19960;-70
2022/03/29 05:53:45;;;;;;;21.67;9.15;;;;;;;7.08;66.73;99118.53;5094383;28;20032;-70
2022/03/29 05:56:15;;;;;;;19.63;9.50;;;;;;;7.27;66.90;99110.16;5094769;28;20040;-70
2022/03/29 05:58:45;;;;;;;17.67;8.18;;;;;;;7.61;65.91;99116.13;5094736;28;20044;-70
2022/03/29 06:01:14;;;;;;;18.37;8.90;;;;;;;7.54;64.93;99106.81;5094314;28;20504;-70
2022/03/29 06:03:43;;;;;;;16.70;7.93;;;;;;;7.79;64.83;99119.56;5094640;28;20750;-70
2022/03/29 06:06:13;;;;;;;19.93;9.47;;;;;;;7.93;64.19;99115.34;5094164;28;20085;-70
2022/03/29 06:08:42;;;;;;;;;;;;;;;7.89;63.74;99112.81;5094514;28;20342;-70
2022/03/29 06:11:11;;;;;;;25.25;9.18;;;;;;;8.03;62.90;99116.19;5094149;28;19966;-70
2022/03/29 06:13:41;;;;;;;21.75;8.82;;;;;;;8.15;63.08;99100.09;5094079;28;20516;-70
2022/03/29 06:16:10;;;;;;;19.38;8.60;;;;;;;8.27;63.44;99100.13;5094064;28;20048;-70
2022/03/29 06:18:39;;;;;;;17.57;7.87;;;;;;;8.57;63.30;99100.06;5093861;28;20067;-70
2022/03/29 06:21:08;;;;;;;15.77;7.63;;;;;;;8.79;63.30;99101.72;5093985;28;20281;-70
2022/03/29 06:23:38;;;;;;;17.93;7.63;;;;;;;9.02;62.15;99105.00;5094023;28;20089;-70
2022/03/29 06:26:08;;;;;;;13.73;7.78;;;;;;;9.22;62.66;99103.25;5093839;28;20040;-70
2022/03/29 06:28:36;;;;;;;12.93;7.45;;;;;;;9.25;61.54;99100.69;5093825;28;20086;-70
2022/03/29 06:31:08;;;;;;;18.17;7.93;;;;;;;9.24;61.33;99106.63;5093788;28;20040;-70
2022/03/29 06:33:37;;;;;;;16.92;7.07;;;;;;;9.31;61.60;99103.19;5092350;28;20123;-71
2022/03/29 06:36:06;;;;;;;15.90;8.93;;;;;;;9.30;61.17;99106.59;5091653;28;20478;-70
2022/03/29 06:38:35;;;;;;;16.33;8.10;;;;;;;9.34;61.69;99107.41;5093606;28;20037;-70
2022/03/29 06:41:05;;;;;;;17.02;8.60;;;;;;;9.52;61.81;99103.94;5093740;28;20516;-70
2022/03/29 06:43:36;;;;;;;17.38;8.18;;;;;;;9.52;61.04;99101.38;5093629;28;20051;-70
2022/03/29 06:46:08;;;;;;;17.08;8.25;;;;;;;9.68;61.11;99082.59;5093665;28;20051;-70
2022/03/29 06:48:38;;;;;;;15.20;8.30;;;;;;;10.12;60.59;99100.13;5093857;28;20074;-70
2022/03/29 06:51:07;;;;;;;15.43;8.52;;;;;;;10.11;60.23;99099.25;5093572;28;20485;-70
2022/03/29 06:53:38;;;;;;;17.73;8.13;;;;;;;10.56;59.79;99081.00;5093511;28;20101;-70
2022/03/29 06:56:08;;;;;;;16.92;8.68;;;;;;;10.83;59.01;99091.78;5092542;28;20131;-70
2022/03/29 06:58:37;;;;;;;;;;;;;;;10.92;58.38;99091.69;5094010;28;20490;-70
2022/03/29 07:01:07;;;;;;;14.80;8.23;;;;;;;11.16;57.64;99092.22;5088099;28;19959;-70
2022/03/29 07:03:36;;;;;;;14.27;7.80;;;;;;;11.18;57.47;99087.13;5082422;28;20132;-70
2022/03/29 07:06:05;;;;;;;17.63;8.27;;;;;;;11.41;57.28;99087.63;5073119;28;20044;-70
2022/03/29 07:08:34;;;;;;;15.88;8.32;;;;;;;11.64;55.39;99085.59;5090057;28;20072;-70
2022/03/29 07:13:42;;;;;;;17.25;9.00;;;;;;;11.79;54.42;99079.44;5092114;28;20044;-71
2022/03/29 07:16:14;;;;;;;20.00;9.65;;;;;;;12.08;54.83;99070.44;5082017;28;20495;-70
2022/03/29 07:18:48;;;;;;;19.80;10.23;;;;;;;12.21;53.90;99075.38;5072838;28;20045;-70
2022/03/29 07:21:17;;;;;;;18.83;10.10;;;;;;;12.62;54.15;99065.25;5076640;28;20048;-70
2022/03/29 07:23:45;;;;;;;18.33;10.13;;;;;;;12.69;53.60;99064.25;5076978;28;20094;-70
2022/03/29 07:26:14;;;;;;;19.60;10.00;;;;;;;12.93;53.32;99065.47;5077254;28;20045;-70
2022/03/29 07:28:44;;;;;;;14.73;7.40;;;;;;;13.10;52.18;99069.41;5090259;28;20040;-70
2022/03/29 07:31:14;;;;;;;22.02;10.73;;;;;;;13.38;51.43;99065.41;5096453;28;20044;-70
2022/03/29 07:33:43;;;;;;;20.08;9.40;;;;;;;13.56;51.06;99063.28;5088499;28;20079;-70
2022/03/29 07:36:12;;;;;;;22.90;10.17;;;;;;;13.60;51.96;99070.88;5084528;28;20456;-70
2022/03/29 07:38:41;;;;;;;19.03;9.73;;;;;;;13.53;53.03;99065.94;5076634;28;20048;-68
2022/03/29 07:41:10;;;;;;;17.77;10.17;;;;;;;13.36;53.27;99068.88;5076614;28;20044;-69
2022/03/29 07:43:39;;;;;;;14.07;7.80;;;;;;;13.48;53.64;99063.47;5076842;28;20056;-69
2022/03/29 07:46:07;;;;;;;18.58;10.35;;;;;;;13.87;52.43;99061.69;5076920;28;20472;-69
2022/03/29 07:48:38;;;;;;;15.03;8.40;;;;;;;14.40;52.34;99061.22;5076586;28;20036;-69
2022/03/29 07:51:27;;;;;;;22.30;10.55;;;;;;;14.32;51.44;99058.03;5076701;28;20269;-69
2022/03/29 07:53:56;;;;;;;18.13;10.32;;;;;;;14.43;51.61;99025.19;5076623;28;20450;-69
2022/03/29 07:56:26;;;;;;;17.92;10.25;;;;;;;14.92;51.14;99057.25;5076371;28;20063;-68
2022/03/29 07:58:56;;;;;;;19.42;10.02;;;;;;;14.89;49.84;99050.47;5078094;28;20045;-68
2022/03/29 08:01:25;;;;;;;17.65;9.65;;;;;;;14.23;51.46;99047.94;5076598;28;20032;-68
2022/03/29 08:03:55;;;;;;;18.17;9.93;;;;;;;14.23;51.85;99042.00;5082595;28;20067;-68
2022/03/29 08:06:25;;;;;;;22.10;11.23;;;;;;;14.52;51.18;99050.63;5091951;28;20101;-68
2022/03/29 08:08:54;;;;;;;18.53;10.00;;;;;;;14.58;50.14;99040.22;5081674;28;20041;-68
2022/03/29 08:11:24;;;;;;;17.80;10.05;;;;;;;14.88;49.84;99037.66;5090305;28;20457;-68
2022/03/29 08:13:54;;;;;;;18.15;9.90;;;;;;;15.00;49.92;99043.28;5096984;28;20450;-67
2022/03/29 08:16:23;;;;;;;19.40;10.57;;;;;;;15.08;49.25;99037.94;5096087;28;20056;-67
2022/03/29 08:18:53;;;;;;;17.90;9.95;;;;;;;15.66;48.47;99037.88;5096047;28;20048;-67
2022/03/29 08:24:02;;;;;;;19.08;9.80;;;;;;;15.77;47.68;99020.38;5096236;28;19927;-67
2022/03/29 08:26:31;;;;;;;21.08;10.48;;;;;;;16.23;48.83;99026.56;5096112;28;20040;-67
2022/03/29 08:29:00;;;;;;;20.50;10.65;;;;;;;16.08;47.42;99023.63;5096147;28;20040;-67
2022/03/29 08:31:29;;;;;;;19.27;10.38;;;;;;;16.24;46.41;99015.38;5094720;28;20044;-67
2022/03/29 08:33:58;;;;;;;20.37;10.40;;;;;;;16.30;46.55;99007.44;5095894;28;20047;-67
2022/03/29 08:36:28;;;;;;;18.80;10.20;;;;;;;16.39;46.27;99007.09;5096008;28;20472;-67
2022/03/29 08:38:58;;;;;;;17.45;9.82;;;;;;;17.03;47.08;99011.69;5095924;28;20089;-67
2022/03/29 08:41:30;;;;;;;20.93;10.20;;;;;;;17.38;45.63;99011.16;5095848;28;20047;-67
2022/03/29 08:44:00;;;;;;;21.35;10.50;;;;;;;17.15;44.38;99006.06;5096295;28;20047;-67
2022/03/29 08:46:33;;;;;;;20.30;10.43;;;;;;;17.34;44.57;99001.88;5095709;28;20131;-67
2022/03/29 08:49:03;;;;;;;20.80;10.40;;;;;;;17.35;43.73;99000.94;5095992;28;20518;-67
2022/03/29 08:51:34;;;;;;;14.80;7.68;;;;;;;17.34;43.99;99001.88;5095666;28;20082;-67
2022/03/29 08:54:03;;;;;;;16.95;9.93;;;;;;;17.86;43.72;98995.47;5095611;28;20055;-67
2022/03/29 08:56:33;;;;;;;17.40;10.75;;;;;;;18.14;43.01;98990.00;5095636;28;20040;-67
2022/03/29 08:59:02;;;;;;;20.45;10.90;;;;;;;18.16;42.61;98997.69;5095463;28;20040;-67
2022/03/29 09:01:31;;;;;;;20.13;10.50;;;;;;;17.95;43.31;98983.91;5095528;28;20044;-67
2022/03/29 09:04:08;;;;;;;18.10;10.10;;;;;;;18.26;42.76;98989.47;5095395;28;20125;-68
2022/03/29 09:06:57;;;;;;;18.23;10.73;;;;;;;18.37;42.68;98989.88;5095295;28;20098;-68
2022/03/29 09:09:28;;;;;;;20.10;9.70;;;;;;;18.46;41.90;98979.16;5095347;28;20054;-68
2022/03/29 09:11:59;;;;;;;17.45;10.50;;;;;;;18.71;42.02;98982.31;5095237;28;20126;-68
2022/03/29 09:14:30;;;;;;;18.50;9.30;;;;;;;19.24;41.69;98986.81;5094276;28;20048;-68
2022/03/29 09:16:59;;;;;;;18.98;10.13;;;;;;;18.98;39.03;98974.25;5095436;28;20047;-69
2022/03/29 09:19:48;;;;;;;22.30;11.38;;;;;;;19.07;40.52;98973.81;5094908;28;20139;-69
2022/03/29 09:22:37;;;;;;;18.88;10.10;;;;;;;19.31;40.04;98962.31;5095256;28;20105;-70
2022/03/29 09:25:08;;;;;;;18.15;9.38;;;;;;;19.86;38.70;98966.53;5094973;28;20101;-69
2022/03/29 09:27:51;;;;;;;18.83;9.27;;;;;;;19.80;37.94;98964.22;5110741;28;20127;-69
2022/03/29 09:30:21;;;;;;;19.30;9.02;;;;;;;19.68;37.34;98946.69;5095830;28;20052;-70
2022/03/29 09:32:57;;;;;;;17.02;9.50;;;;;;;19.73;37.29;98964.59;5094926;28;20048;-69
2022/03/29 09:35:30;;;;;;;17.45;9.13;;;;;;;20.02;37.14;98953.63;5094957;28;20048;-69
2022/03/29 09:38:01;;;;;;;17.13;8.43;;;;;;;20.16;36.37;98956.34;5094791;28;20124;-69
2022/03/29 09:40:35;;;;;;;20.90;9.40;;;;;;;19.73;36.57;98955.09;5095035;28;20486;-69
2022/03/29 09:43:25;;;;;;;19.02;9.77;;;;;;;19.48;36.80;98944.28;5094218;28;20051;-69
2022/03/29 09:45:56;;;;;;;21.02;9.65;;;;;;;19.79;37.43;98947.03;5094706;28;20094;-69
2022/03/29 09:48:29;;;;;;;18.63;9.63;;;;;;;19.84;36.74;98947.59;5094597;28;20131;-69
2022/03/29 09:51:15;;;;;;;18.67;10.57;;;;;;;20.03;36.76;98938.00;5094810;28;20052;-69
2022/03/29 09:53:50;;;;;;;18.02;9.48;;;;;;;19.54;36.26;98932.75;5094577;28;20048;-63
2022/03/29 09:56:24;;;;;;;18.35;9.50;;;;;;;19.71;37.29;98930.19;5094830;28;20055;-62
2022/03/29 09:59:15;;;;;;;17.05;9.23;;;;;;;19.92;37.59;98929.09;5094381;28;20040;-63
2022/03/29 10:01:51;;;;;;;17.77;9.63;;;;;;;19.84;36.68;98911.34;5094723;28;20440;-62
2022/03/29 10:04:21;;;;;;;15.50;8.95;;;;;;;20.29;37.02;98917.72;5094201;28;20044;-63
2022/03/29 10:06:54;;;;;;;18.35;10.13;;;;;;;20.12;36.81;98921.16;5094249;28;20047;-62
2022/03/29 10:09:27;;;;;;;18.77;9.80;;;;;;;20.58;37.05;98914.44;5094490;28;20050;-62
2022/03/29 10:11:58;;;;;;;22.35;11.32;;;;;;;20.44;37.22;98916.94;5094215;28;20056;-62
2022/03/29 10:14:29;;;;;;;20.13;10.90;;;;;;;20.10;36.75;98885.88;5094200;28;20476;-62
2022/03/29 10:16:59;;;;;;;22.65;11.05;;;;;;;20.35;37.26;98907.00;5094060;28;20406;-61
2022/03/29 10:19:28;;;;;;;25.20;12.35;;;;;;;20.58;37.30;98909.25;5093825;28;20064;-62
2022/03/29 10:21:59;;;;;;;23.73;12.18;;;;;;;20.50;37.64;98901.88;5094023;28;20052;-64
2022/03/29 10:24:30;;;;;;;18.65;10.30;;;;;;;20.88;37.07;98902.38;5093896;28;20055;-64
2022/03/29 10:27:01;;;;;;;20.55;10.60;;;;;;;21.05;36.15;98893.69;5093929;28;20051;-64
2022/03/29 10:29:31;;;;;;;20.95;10.15;;;;;;;21.21;36.18;98884.97;5092471;28;20474;-64
2022/03/29 10:32:01;;;;;;;23.88;11.65;;;;;;;21.03;36.30;98885.97;5094221;28;20052;-64
2022/03/29 10:34:37;;;;;;;19.80;10.05;;;;;;;21.80;35.58;98881.53;5093777;28;20044;-62
2022/03/29 10:37:09;;;;;;;18.55;9.95;;;;;;;21.96;33.82;98879.72;5093887;28;20101;-63
2022/03/29 10:39:51;;;;;;;18.45;8.95;;;;;;;22.26;33.13;98871.84;5093756;28;20131;-64
2022/03/29 10:42:29;;;;;;;21.90;9.73;;;;;;;22.25;32.92;98875.34;5093858;28;20478;-63
2022/03/29 10:44:59;;;;;;;20.30;9.70;;;;;;;22.36;32.47;98867.72;5093985;28;20440;-63
2022/03/29 10:48:05;;;;;;;22.65;10.05;;;;;;;22.64;32.29;98857.31;5093585;28;20127;-63
2022/03/29 10:50:56;;;;;;;20.05;10.35;;;;;;;22.66;32.75;98860.66;5093638;28;20055;-64
2022/03/29 10:53:26;;;;;;;19.95;10.45;;;;;;;22.28;31.80;98837.94;5093594;28;20044;-63
2022/03/29 10:56:19;;;;;;;23.08;10.77;;;;;;;21.74;32.42;98857.69;5092810;28;20044;-63
2022/03/29 10:59:12;;;;;;;15.80;8.68;;;;;;;22.41;31.78;98844.06;5093586;28;20048;-63
2022/03/29 11:01:42;;;;;;;17.25;8.68;;;;;;;22.65;30.32;98858.97;5091358;28;20110;-63
2022/03/29 11:04:23;;;;;;;17.13;9.43;;;;;;;22.73;30.52;98857.66;5093488;28;20044;-64
2022/03/29 11:07:14;;;;;;;18.38;9.25;;;;;;;22.67;30.35;98844.09;5093484;28;20051;-63
2022/03/29 11:09:48;;;;;;;20.52;9.90;;;;;;;22.57;31.38;98813.53;5093439;28;20036;-63
2022/03/29 11:12:39;;;;;;;16.05;8.45;;;;;;;23.11;29.53;98830.84;5093747;28;20048;-63
2022/03/29 11:15:39;;;;;;;18.55;9.38;;;;;;;22.94;31.14;98835.50;5093679;28;20093;-63
2022/03/29 11:18:37;;;;;;;18.27;9.43;;;;;;;22.77;30.07;98826.13;5091525;28;20055;-63
2022/03/29 11:21:09;;;;;;;21.07;9.10;;;;;;;22.93;30.92;98818.19;5091294;28;20079;-63
2022/03/29 11:23:40;;;;;;;18.98;8.90;;;;;;;22.79;31.14;98818.25;5093259;28;20291;-63
2022/03/29 11:26:12;;;;;;;16.52;8.77;;;;;;;22.50;29.54;98823.50;5093478;28;20387;-63
2022/03/29 11:28:49;;;;;;;16.48;7.88;;;;;;;22.53;30.83;98812.88;5093396;28;20165;-63
2022/03/29 11:31:19;;;;;;;17.17;8.68;;;;;;;22.63;31.88;98808.81;5093626;28;20405;-63
2022/03/29 11:33:50;;;;;;;16.60;8.57;;;;;;;22.78;31.55;98816.56;5093180;28;20074;-63
2022/03/29 11:36:22;;;;;;;17.80;8.52;;;;;;;22.51;31.35;98809.56;5093256;28;20052;-63
2022/03/29 11:38:51;;;;;;;16.50;7.75;;;;;;;22.87;31.12;98805.56;5093132;28;20044;-63
2022/03/29 11:41:22;;;;;;;16.50;9.48;;;;;;;22.92;30.91;98798.28;5093111;28;20062;-63
2022/03/29 11:43:53;;;;;;;17.70;8.57;;;;;;;22.97;29.65;98791.03;5093174;28;20052;-63
2022/03/29 11:46:24;;;;;;;17.17;8.82;;;;;;;23.03;29.71;98785.44;5093121;28;20059;-63
2022/03/29 11:48:56;;;;;;;15.55;7.65;;;;;;;22.83;29.87;98791.09;5092960;28;20040;-63
2022/03/29 11:51:27;;;;;;;19.50;8.65;;;;;;;22.99;30.24;98790.00;5093460;28;20389;-63
2022/03/29 11:53:59;;;;;;;17.00;7.65;;;;;;;23.03;30.16;98785.44;5093081;28;20129;-63
2022/03/29 11:56:28;;;;;;;16.42;8.45;;;;;;;22.74;30.78;98783.88;5093026;28;20130;-63
2022/03/29 11:58:57;;;;;;;15.00;7.85;;;;;;;22.93;29.53;98784.34;5092897;28;20043;-63